Map

Track Data

SID SEASON NUMBER BASIN SUBBASIN NAME ISO_TIME NATURE LAT LON WMO_WIND WMO_PRES WMO_AGENCY TRACK_TYPE DIST2LAND LANDFALL IFLAG USA_AGENCY USA_ATCF_ID USA_LAT USA_LON USA_RECORD USA_STATUS USA_WIND USA_PRES USA_SSHS USA_R34_NE USA_R34_SE USA_R34_SW USA_R34_NW USA_R50_NE USA_R50_SE USA_R50_SW USA_R50_NW USA_R64_NE USA_R64_SE USA_R64_SW USA_R64_NW USA_POCI USA_ROCI USA_RMW USA_EYE TOKYO_LAT TOKYO_LON TOKYO_GRADE TOKYO_WIND TOKYO_PRES TOKYO_R50_DIR TOKYO_R50_LONG TOKYO_R50_SHORT TOKYO_R30_DIR TOKYO_R30_LONG TOKYO_R30_SHORT TOKYO_LAND CMA_LAT CMA_LON CMA_CAT CMA_WIND CMA_PRES HKO_LAT HKO_LON HKO_CAT HKO_WIND HKO_PRES NEWDELHI_LAT NEWDELHI_LON NEWDELHI_GRADE NEWDELHI_WIND NEWDELHI_PRES NEWDELHI_CI NEWDELHI_DP NEWDELHI_POCI REUNION_LAT REUNION_LON REUNION_TYPE REUNION_WIND REUNION_PRES REUNION_TNUM REUNION_CI REUNION_RMW REUNION_R34_NE REUNION_R34_SE REUNION_R34_SW REUNION_R34_NW REUNION_R50_NE REUNION_R50_SE REUNION_R50_SW REUNION_R50_NW REUNION_R64_NE REUNION_R64_SE REUNION_R64_SW REUNION_R64_NW BOM_LAT BOM_LON BOM_TYPE BOM_WIND BOM_PRES BOM_TNUM BOM_CI BOM_RMW BOM_R34_NE BOM_R34_SE BOM_R34_SW BOM_R34_NW BOM_R50_NE BOM_R50_SE BOM_R50_SW BOM_R50_NW BOM_R64_NE BOM_R64_SE BOM_R64_SW BOM_R64_NW BOM_ROCI BOM_POCI BOM_EYE BOM_POS_METHOD BOM_PRES_METHOD NADI_LAT NADI_LON NADI_CAT NADI_WIND NADI_PRES WELLINGTON_LAT WELLINGTON_LON WELLINGTON_WIND WELLINGTON_PRES DS824_LAT DS824_LON DS824_STAGE DS824_WIND DS824_PRES TD9636_LAT TD9636_LON TD9636_STAGE TD9636_WIND TD9636_PRES TD9635_LAT TD9635_LON TD9635_WIND TD9635_PRES TD9635_ROCI NEUMANN_LAT NEUMANN_LON NEUMANN_CLASS NEUMANN_WIND NEUMANN_PRES MLC_LAT MLC_LON MLC_CLASS MLC_WIND MLC_PRES USA_GUST BOM_GUST BOM_GUST_PER REUNION_GUST REUNION_GUST_PER USA_SEAHGT USA_SEARAD_NE USA_SEARAD_SE USA_SEARAD_SW USA_SEARAD_NW STORM_SPEED STORM_DIR
1978354S10088 1979 132 SI MM NOT_NAMED 1978-12-20 00:00:00 TS -9.80000 87.5000 main 1553 1542 O________OO_O_ jtwc_sh SH031979 -9.80000 87.5000 30 -1 -9.80000 87.5000 TC 30 -9.80000 87.5000 1 30 -9.80000 87.5000 TC 25 5 113
1978354S10088 1979 132 SI MM NOT_NAMED 1978-12-20 03:00:00 TS -9.90176 87.7474 main 1542 1522 P________PP_P_ SH031979 -9.90004 87.7500 30 -1 -9.90004 87.7500 TC 30 -9.90946 87.7421 1 31 -9.89753 87.7475 TC 27 5 113
1978354S10088 1979 132 SI MM NOT_NAMED 1978-12-20 06:00:00 TS -10.0038 87.9968 main 1522 1512 O________OP_O_ jtwc_sh SH031979 -10.0000 88.0000 30 -1 -10.0000 88.0000 TC 30 -10.0151 87.9874 1 32 -10.0000 88.0000 TC 30 5 112
1978354S10088 1979 132 SI MM NOT_NAMED 1978-12-20 09:00:00 TS -10.1052 88.2491 main 1512 1493 P________PP_P_ SH031979 -10.1000 88.2500 32 -1 -10.1000 88.2500 TC 32 -10.1131 88.2390 1 33 -10.1075 88.2575 TC 32 5 112
1978354S10088 1979 132 SI MM NOT_NAMED 1978-12-20 12:00:00 TS -10.2000 88.5000 main 1493 1483 O________OO_O_ jtwc_sh SH031979 -10.2000 88.5000 35 0 -10.2000 88.5000 TC 35 -10.2000 88.5000 2 35 -10.2000 88.5000 TC 35 5 110
1978354S10088 1979 132 SI MM NOT_NAMED 1978-12-20 15:00:00 TS -10.2848 88.7512 main 1475 1465 P________PP_P_ SH031979 -10.3075 88.7650 35 0 -10.3075 88.7650 TC 35 -10.2741 88.7672 2 36 -10.2500 88.7075 TC 35 5 109
1978354S10088 1979 132 SI MM NOT_NAMED 1978-12-20 18:00:00 TS -10.3606 88.9781 main 1465 1449 O________OP_O_ jtwc_sh SH031979 -10.4000 89.0000 35 0 -10.4000 89.0000 TC 35 -10.3425 89.0124 2 37 -10.3000 88.9000 TC 35 4 108
1978354S10088 1979 132 SI MM NOT_NAMED 1978-12-20 21:00:00 TS -10.4212 89.1823 main 1449 1448 P________PP_P_ SH031979 -10.4425 89.1950 37 0 -10.4425 89.1950 TC 37 -10.4147 89.2015 2 38 -10.3850 89.1375 TC 37 3 114
1978354S10088 1979 132 SI MM NOT_NAMED 1978-12-21 00:00:00 TS -10.5000 89.3000 main 1448 1448 O________OO_O_ jtwc_sh SH031979 -10.5000 89.3000 40 0 -10.5000 89.3000 TC 40 -10.5000 89.3000 2 40 -10.5000 89.3000 TC 40 2 153
1978354S10088 1979 132 SI MM NOT_NAMED 1978-12-21 03:00:00 TS -10.6404 89.2990 main 1456 1456 P________PP_P_ SH031979 -10.6425 89.3025 42 0 -10.6425 89.3025 TC 42 -10.6268 89.2808 2 42 -10.6500 89.3100 TC 42 3 200
1978354S10088 1979 132 SI MM NOT_NAMED 1978-12-21 06:00:00 TS -10.7912 89.1926 main 1479 1479 O________OP_O_ jtwc_sh SH031979 -10.8000 89.2000 45 0 -10.8000 89.2000 TC 45 -10.7649 89.1702 2 45 -10.8000 89.2000 TC 45 4 226
1978354S10088 1979 132 SI MM NOT_NAMED 1978-12-21 09:00:00 TS -10.9102 89.0168 main 1503 1503 P________PP_P_ SH031979 -10.9150 89.0225 47 0 -10.9150 89.0225 TC 47 -10.8956 88.9995 2 47 -10.9150 89.0225 TC 47 4 242
1978354S10088 1979 132 SI MM NOT_NAMED 1978-12-21 12:00:00 TS -11.0000 88.8000 main 1526 1526 O________OO_O_ jtwc_sh SH031979 -11.0000 88.8000 50 0 -11.0000 88.8000 TC 50 -11.0000 88.8000 2 50 -11.0000 88.8000 TC 50 4 249
1978354S10088 1979 132 SI MM NOT_NAMED 1978-12-21 15:00:00 TS -11.0601 88.6084 main 1550 1550 P________PP_P_ SH031979 -11.0650 88.6000 50 0 -11.0650 88.6000 TC 50 -11.0456 88.6336 2 -11.0650 88.6000 TC 45 4 257
1978354S10088 1979 132 SI MM NOT_NAMED 1978-12-21 18:00:00 TS -11.0912 88.4112 main 1566 1566 O________OP_O_ jtwc_sh SH031979 -11.1000 88.4000 50 0 -11.1000 88.4000 TC 50 -11.0649 88.4448 2 -11.1000 88.4000 TC 40 4 266
1978354S10088 1979 132 SI MM NOT_NAMED 1978-12-21 21:00:00 TS -11.0904 88.2159 main 1583 1583 P________PP_P_ SH031979 -11.0925 88.2075 52 0 -11.0925 88.2075 TC 52 -11.0768 88.2336 2 -11.1000 88.2150 TC 37 4 269
1978354S10088 1979 132 SI MM NOT_NAMED 1978-12-22 00:00:00 TS -11.1000 88.0000 main 1599 1599 O________OO_O_ jtwc_sh SH031979 -11.1000 88.0000 55 0 -11.1000 88.0000 TC 55 -11.1000 88.0000 2 -11.1000 88.0000 TC 35 5 260
1978354S10088 1979 132 SI MM NOT_NAMED 1978-12-22 03:00:00 TS -11.1742 87.7491 main 1632 1632 P________PP_P_ SH031979 -11.1925 87.7650 55 0 -11.1925 87.7650 TC 55 -11.1768 87.7589 2 -11.1350 87.7075 TC 37 5 252
1978354S10088 1979 132 SI MM NOT_NAMED 1978-12-22 06:00:00 TS -11.2662 87.4738 main 1655 1655 O________OP_O_ jtwc_sh SH031979 -11.3000 87.5000 55 0 -11.3000 87.5000 TC 55 -11.2649 87.4952 2 -11.2000 87.4000 TC 40 6 252
1978354S10088 1979 132 SI MM NOT_NAMED 1978-12-22 09:00:00 TS -11.3495 87.1954 main 1681 1681 P________PP_P_ SH031979 -11.3725 87.2075 52 0 -11.3725 87.2075 TC 52 -11.3455 87.2089 2 -11.3074 87.1575 TC 45 6 257
1978354S10088 1979 132 SI MM NOT_NAMED 1978-12-22 12:00:00 TS -11.4000 86.9000 main 1713 1713 O________OO_O_ jtwc_sh SH031979 -11.4000 86.9000 50 0 -11.4000 86.9000 TC 50 -11.4000 86.9000 2 50 -11.4000 86.9000 TC 50 6 267
1978354S10088 1979 132 SI MM NOT_NAMED 1978-12-22 15:00:00 TS -11.3812 86.5976 main 1739 1739 P________PP_P_ SH031979 -11.3574 86.6149 47 0 -11.3574 86.6149 TC 47 -11.3873 86.5956 2 47 -11.4225 86.5650 TC 47 6 276
1978354S10088 1979 132 SI MM NOT_NAMED 1978-12-22 18:00:00 TS -11.3374 86.2668 main 1758 1758 O________OP_O_ jtwc_sh SH031979 -11.3000 86.3000 45 0 -11.3000 86.3000 TC 45 -11.3496 86.2670 2 45 -11.4000 86.2000 TC 45 7 276
1978354S10088 1979 132 SI MM NOT_NAMED 1978-12-22 21:00:00 TS -11.3061 85.9093 main 1794 1794 P________PP_P_ SH031979 -11.2849 85.9300 42 0 -11.2849 85.9300 TC 42 -11.3122 85.9049 2 42 -11.3424 85.8724 TC 42 8 273
1978354S10088 1979 132 SI MM NOT_NAMED 1978-12-23 00:00:00 TS -11.3000 85.5000 main 1829 1829 O________OO_O_ jtwc_sh SH031979 -11.3000 85.5000 40 0 -11.3000 85.5000 TC 40 -11.3000 85.5000 2 40 -11.3000 85.5000 TC 40 9 268
1978354S10088 1979 132 SI MM NOT_NAMED 1978-12-23 03:00:00 TS -11.3350 85.0189 main 1874 1874 P________PP_P_ SH031979 -11.3350 85.0150 40 0 -11.3350 85.0150 TC 40 -11.3425 85.0230 2 38 -11.3275 85.0225 TC 37 10 264
1978354S10088 1979 132 SI MM NOT_NAMED 1978-12-23 06:00:00 TS -11.4032 84.5019 main 1926 1926 O________OP_O_ jtwc_sh SH031979 -11.4000 84.5000 40 0 -11.4000 84.5000 TC 40 -11.4129 84.5077 2 37 -11.4000 84.5000 TC 35 10 261
1978354S10088 1979 132 SI MM NOT_NAMED 1978-12-23 09:00:00 TS -11.4948 83.9840 main 1977 1977 P________PP_P_ SH031979 -11.4925 83.9850 37 0 -11.4925 83.9850 TC 37 -11.5019 83.9885 2 36 -11.4925 83.9775 TC 35 10 259
1978354S10088 1979 132 SI MM NOT_NAMED 1978-12-23 12:00:00 TS -11.6000 83.5000 main 1986 1983 O________OO_O_ jtwc_sh SH031979 -11.6000 83.5000 35 0 -11.6000 83.5000 TC 35 -11.6000 83.5000 2 35 -11.6000 83.5000 TC 35 9 257
1978354S10088 1979 132 SI MM NOT_NAMED 1978-12-23 15:00:00 TS -11.7000 83.0988 main 1991 1988 P________PP_P_ SH031979 -11.6999 83.0775 35 0 -11.6999 83.0775 TC 35 -11.7004 83.1053 2 33 -11.6998 83.1349 TC 32 8 255
1978354S10088 1979 132 SI MM NOT_NAMED 1978-12-23 18:00:00 TS -11.8017 82.7356 main 1996 1995 O________OP_O_ jtwc_sh SH031979 -11.8000 82.7000 35 0 -11.8000 82.7000 TC 35 -11.8067 82.7425 2 32 -11.8000 82.8000 TC 30 7 254
1978354S10088 1979 132 SI MM NOT_NAMED 1978-12-23 21:00:00 TS -11.9080 82.3802 main 2004 2002 P________PP_P_ SH031979 -11.9074 82.3575 32 -1 -11.9074 82.3575 TC 32 -11.9097 82.3834 2 31 -11.9074 82.4225 TC 30 7 255
1978354S10088 1979 132 SI MM NOT_NAMED 1978-12-24 00:00:00 TS -12.0000 82.0000 main 2011 2008 O________OO_O_ jtwc_sh SH031979 -12.0000 82.0000 30 -1 -12.0000 82.0000 TC 30 -12.0000 82.0000 1 30 -12.0000 82.0000 TC 30 8 260
1978354S10088 1979 132 SI MM NOT_NAMED 1978-12-24 03:00:00 TS -12.0583 81.5434 main 2019 2017 P________PP_P_ SH031979 -12.0575 81.5724 30 -1 -12.0575 81.5724 TC 30 -12.0606 81.5212 1 -12.0575 81.5075 TC 30 9 264
1978354S10088 1979 132 SI MM NOT_NAMED 1978-12-24 06:00:00 TS -12.1020 81.0550 main 2017 2016 O________OP_O_ jtwc_sh SH031979 -12.1000 81.1000 30 -1 -12.1000 81.1000 TC 30 -12.1080 81.0199 1 -12.1000 81.0000 TC 30 10 265
1978354S10088 1979 132 SI MM NOT_NAMED 1978-12-24 09:00:00 TS -12.1504 80.5484 main 2028 2028 P________PP_P_ SH031979 -12.1501 80.5700 30 -1 -12.1501 80.5700 TC 30 -12.1513 80.5336 1 -12.1500 80.5200 TC 30 9 264
1978354S10088 1979 132 SI MM NOT_NAMED 1978-12-24 12:00:00 TS -12.2000 80.1000 main 2028 2028 O________OO_O_ jtwc_sh SH031979 -12.2000 80.1000 30 -1 -12.2000 80.1000 TC 30 -12.2000 80.1000 1 -12.2000 80.1000 TC 30 7 262
1978354S10088 1979 132 SI MM NOT_NAMED 1978-12-24 15:00:00 TS -12.2464 79.8135 main 2029 2029 P________PP_P_ SH031979 -12.2423 79.8199 30 -1 -12.2423 79.8199 TC 30 -12.2584 79.8443 1 -12.2424 79.7700 TC 30 5 258
1978354S10088 1979 132 SI MM NOT_NAMED 1978-12-24 18:00:00 TS -12.3064 79.5830 main 2042 2042 O________OP_O_ jtwc_sh SH031979 -12.3000 79.6000 30 -1 -12.3000 79.6000 TC 30 -12.3256 79.6318 1 -12.3000 79.5000 TC 30 5 252
1978354S10088 1979 132 SI MM NOT_NAMED 1978-12-24 21:00:00 TS -12.3935 79.3577 main 2054 2054 P________PP_P_ SH031979 -12.3922 79.3674 30 -1 -12.3922 79.3674 TC 30 -12.4050 79.3785 1 -12.3846 79.3173 TC 30 6 251
1978354S10088 1979 132 SI MM NOT_NAMED 1978-12-25 00:00:00 TS -12.5000 79.0000 main 2069 2069 O________OO_O_ jtwc_sh SH031979 -12.5000 79.0000 30 -1 -12.5000 79.0000 TC 30 -12.5000 79.0000 1 30 -12.5000 79.0000 TC 30 10 257
1978354S10088 1979 132 SI MM NOT_NAMED 1978-12-25 03:00:00 TS -12.6116 78.3704 main 2086 2086 P________PP_P_ SH031979 -12.5926 78.3749 30 -1 -12.5926 78.3749 TC 30 -12.6110 78.4068 1 28 -12.6503 78.3251 TC 27 14 260
1978354S10088 1979 132 SI MM NOT_NAMED 1978-12-25 06:00:00 TS -12.7338 77.5949 main 2110 2110 O________OP_O_ jtwc_sh SH031979 -12.7000 77.6000 30 -1 -12.7000 77.6000 TC 30 -12.7353 77.6797 1 27 -12.8000 77.5000 TC 25 15 260
1978354S10088 1979 132 SI MM NOT_NAMED 1978-12-25 09:00:00 TS -12.8666 76.8182 main 2147 2102 P________PP_P_ SH031979 -12.8498 76.8225 30 -1 -12.8498 76.8225 TC 30 -12.8669 76.8628 1 26 -12.8997 76.7648 TC 25 16 260
1978354S10088 1979 132 SI MM NOT_NAMED 1978-12-25 12:00:00 TS -13.0000 76.0000 main 2102 2019 O________OO_O_ jtwc_sh SH031979 -13.0000 76.0000 30 -1 -13.0000 76.0000 TC 30 -13.0000 76.0000 1 25 -13.0000 76.0000 TC 25 16 261
1978354S10088 1979 132 SI MM NOT_NAMED 1978-12-25 15:00:00 TS -13.1198 75.1575 main 2019 1926 P________PP_P_ SH031979 -13.0997 75.1648 27 -1 -13.0997 75.1648 TC 27 -13.1302 75.1278 1 -13.1498 75.1725 TC 25 17 262
1978354S10088 1979 132 SI MM NOT_NAMED 1978-12-25 18:00:00 TS -13.2392 74.2884 main 1926 1829 O________OP_O_ jtwc_sh SH031979 -13.2000 74.3000 25 -1 -13.2000 74.3000 TC 25 -13.2568 74.2535 1 -13.3000 74.3000 TC 25 17 262
1978354S10088 1979 132 SI MM NOT_NAMED 1978-12-25 21:00:00 TS -13.3674 73.3995 main 1829 1747 P________PP_P_ SH031979 -13.3382 73.4079 25 -1 -13.3382 73.4079 TC 25 -13.3800 73.3774 1 -13.4131 73.4051 TC 27 18 261
1978354S10088 1979 132 SI MM NOT_NAMED 1978-12-26 00:00:00 TS -13.5000 72.5000 main 1738 O________OO_O_ jtwc_sh SH031979 -13.5000 72.5000 25 -1 -13.5000 72.5000 TC 25 -13.5000 72.5000 1 -13.5000 72.5000 TC 30 18 261

About IBTrACS Database

This database is a web-friendly format of International Best Track Archive for Climate Stewardship (IBTrACS), a global best track data archive curated by NOAA dating back to 1842.

Updated: 2021-11-26